createdAt,value
2018-01-31T01:52:51.942Z,7.66
2018-01-31T01:55:21.165Z,7.68
2018-01-31T01:57:51.158Z,7.68
2018-01-31T02:00:20.386Z,7.65
2018-01-31T02:02:49.609Z,7.67
2018-01-31T02:05:19.693Z,7.67
2018-01-31T02:07:49.667Z,7.73
2018-01-31T02:10:18.878Z,7.71
2018-01-31T02:12:48.078Z,7.67
2018-01-31T02:15:17.299Z,7.68
2018-01-31T02:17:47.265Z,7.70
2018-01-31T02:20:16.494Z,7.73
2018-01-31T02:22:45.708Z,7.72
2018-01-31T02:25:15.746Z,7.73
2018-01-31T02:27:44.932Z,7.72
2018-01-31T02:30:14.373Z,7.70
2018-01-31T02:32:43.581Z,7.67
2018-01-31T02:35:12.751Z,7.72
2018-01-31T02:37:42.001Z,7.74
2018-01-31T02:40:12.122Z,7.75
2018-01-31T02:42:41.303Z,7.75
2018-01-31T02:45:10.493Z,7.77
2018-01-31T02:47:39.783Z,7.77
2018-01-31T02:50:09.066Z,7.79
2018-01-31T02:52:38.247Z,7.81
2018-01-31T02:55:07.498Z,7.82
2018-01-31T02:57:36.736Z,7.85
2018-01-31T03:00:06.687Z,7.88
2018-01-31T03:02:35.909Z,7.89
2018-01-31T03:05:05.178Z,7.91
2018-01-31T03:07:34.502Z,7.93
2018-01-31T03:10:03.707Z,7.98
2018-01-31T03:12:32.875Z,7.96
2018-01-31T03:15:02.287Z,7.98
2018-01-31T03:17:31.530Z,8.02
2018-01-31T03:20:01.505Z,8.04
2018-01-31T03:22:30.687Z,8.06
2018-01-31T03:24:59.927Z,8.07
2018-01-31T03:27:29.126Z,8.04
2018-01-31T03:29:59.258Z,8.08
2018-01-31T03:32:28.481Z,8.11
2018-01-31T03:34:57.719Z,8.08
2018-01-31T03:37:26.941Z,8.08
2018-01-31T03:39:56.326Z,8.09
2018-01-31T03:42:25.573Z,8.07
2018-01-31T03:44:54.806Z,8.08
2018-01-31T03:47:24.070Z,8.08
2018-01-31T03:49:54.013Z,8.08
2018-01-31T03:52:23.228Z,8.13
2018-01-31T03:54:52.443Z,8.13
2018-01-31T03:57:22.442Z,8.17
2018-01-31T03:59:51.638Z,8.19
2018-01-31T04:02:20.879Z,8.24
2018-01-31T04:04:50.123Z,8.25
2018-01-31T04:07:19.520Z,8.28
2018-01-31T04:09:48.723Z,8.28
2018-01-31T04:12:17.966Z,8.30
2018-01-31T04:14:47.921Z,8.35
2018-01-31T04:17:17.150Z,8.37
2018-01-31T04:19:46.341Z,8.40
2018-01-31T04:22:15.530Z,8.45
2018-01-31T04:24:44.791Z,8.45
2018-01-31T04:27:13.997Z,8.46
2018-01-31T04:29:43.261Z,8.54
2018-01-31T04:32:12.496Z,8.55
2018-01-31T04:34:41.831Z,8.57
2018-01-31T04:37:11.233Z,8.57
2018-01-31T04:39:41.246Z,8.58
2018-01-31T04:42:10.459Z,8.66
2018-01-31T04:44:39.677Z,8.72
2018-01-31T04:47:09.724Z,8.73
2018-01-31T04:49:39.693Z,8.75
2018-01-31T04:52:10.449Z,8.74
2018-01-31T04:54:40.418Z,8.77
2018-01-31T04:57:09.972Z,8.82
2018-01-31T04:59:40.003Z,8.88
2018-01-31T05:02:09.218Z,8.89
2018-01-31T05:04:38.432Z,8.92
2018-01-31T05:07:07.641Z,8.94
2018-01-31T05:09:36.847Z,8.93
2018-01-31T05:12:07.566Z,8.98
2018-01-31T05:14:36.854Z,9.00
2018-01-31T05:17:06.049Z,9.00
2018-01-31T05:19:35.335Z,9.03
2018-01-31T05:22:04.595Z,9.07
2018-01-31T05:24:34.577Z,9.08
2018-01-31T05:27:03.780Z,9.11
2018-01-31T05:29:33.010Z,9.14
2018-01-31T05:32:02.974Z,9.15
2018-01-31T05:34:32.249Z,9.16
2018-01-31T05:37:01.447Z,9.23
2018-01-31T05:39:30.654Z,9.25
2018-01-31T05:41:59.849Z,9.29
2018-01-31T05:44:29.192Z,9.28
2018-01-31T05:46:58.410Z,9.32
2018-01-31T05:49:27.648Z,9.37
2018-01-31T05:51:56.871Z,9.40
2018-01-31T05:54:26.105Z,9.42
2018-01-31T05:56:56.122Z,9.44
2018-01-31T05:59:26.105Z,9.50
2018-01-31T06:01:56.230Z,9.52
2018-01-31T06:04:25.431Z,9.54
2018-01-31T06:06:54.736Z,9.54
2018-01-31T06:09:23.919Z,9.59
2018-01-31T06:11:53.159Z,9.57
2018-01-31T06:14:22.496Z,9.59
2018-01-31T06:16:51.695Z,9.64
2018-01-31T06:19:20.897Z,9.64
2018-01-31T06:21:50.095Z,9.66
2018-01-31T06:24:19.300Z,9.68
2018-01-31T06:26:48.482Z,9.68
2018-01-31T06:29:17.718Z,9.68
2018-01-31T06:31:47.680Z,9.71
2018-01-31T06:34:16.902Z,9.72
2018-01-31T06:36:46.090Z,9.75
2018-01-31T06:39:15.310Z,9.75
2018-01-31T06:41:44.510Z,9.77
2018-01-31T06:44:13.738Z,9.79
2018-01-31T06:46:43.691Z,9.83
2018-01-31T06:49:12.991Z,9.84
2018-01-31T06:51:42.185Z,9.81
2018-01-31T06:54:11.375Z,9.81
2018-01-31T06:56:40.581Z,9.82
2018-01-31T06:59:09.803Z,9.84
2018-01-31T07:01:39.001Z,9.84
2018-01-31T07:04:08.239Z,9.83
2018-01-31T07:06:37.455Z,9.84
2018-01-31T07:09:06.639Z,9.87
2018-01-31T07:11:35.876Z,9.85
2018-01-31T07:14:05.071Z,9.86
2018-01-31T07:16:34.283Z,9.85
2018-01-31T07:19:03.463Z,9.86
2018-01-31T07:21:32.688Z,9.89
2018-01-31T07:24:02.667Z,9.91
2018-01-31T07:26:31.901Z,9.90
2018-01-31T07:29:01.102Z,9.89
2018-01-31T07:31:30.345Z,9.89
2018-01-31T07:33:59.593Z,9.91
2018-01-31T07:36:28.824Z,9.88
2018-01-31T07:38:58.910Z,9.89
2018-01-31T07:41:28.913Z,9.89
2018-01-31T07:43:58.111Z,9.88
2018-01-31T07:46:27.342Z,9.91
2018-01-31T07:48:56.624Z,9.96
2018-01-31T07:51:25.822Z,9.97
2018-01-31T07:53:55.091Z,9.96
2018-01-31T07:56:24.403Z,9.99
2018-01-31T07:58:53.625Z,9.99
2018-01-31T08:01:22.821Z,10.00
2018-01-31T08:03:52.006Z,10.02
2018-01-31T08:06:21.997Z,10.07
2018-01-31T08:08:51.427Z,10.06
2018-01-31T08:11:20.640Z,10.08
2018-01-31T08:13:50.636Z,10.10
2018-01-31T08:16:19.820Z,10.11
2018-01-31T08:18:49.113Z,10.15
2018-01-31T08:21:18.283Z,10.21
2018-01-31T08:23:47.485Z,10.23
2018-01-31T08:26:16.691Z,10.24
2018-01-31T08:28:46.038Z,10.25
2018-01-31T08:31:15.255Z,10.25
2018-01-31T08:33:45.298Z,10.28
2018-01-31T08:36:15.248Z,10.31
2018-01-31T08:38:44.458Z,10.31
2018-01-31T08:41:15.170Z,10.32
2018-01-31T08:43:44.358Z,10.30
2018-01-31T08:46:13.553Z,10.33
2018-01-31T08:48:42.884Z,10.36
2018-01-31T08:51:12.127Z,10.38
2018-01-31T08:53:41.326Z,10.40
2018-01-31T08:56:10.631Z,10.41
2018-01-31T08:58:40.574Z,10.43
2018-01-31T09:01:09.801Z,10.48
2018-01-31T09:03:38.996Z,10.50
2018-01-31T09:06:08.200Z,10.52
2018-01-31T09:08:38.243Z,10.52
2018-01-31T09:11:07.478Z,10.53
2018-01-31T09:13:36.693Z,10.56
2018-01-31T09:16:05.907Z,10.58
2018-01-31T09:18:35.174Z,10.60
2018-01-31T09:21:04.373Z,10.55
2018-01-31T09:23:33.651Z,10.56
2018-01-31T09:26:02.877Z,10.57
2018-01-31T09:28:32.075Z,10.53
2018-01-31T09:31:01.297Z,10.53
2018-01-31T09:33:30.526Z,10.54
2018-01-31T09:35:59.750Z,10.53
2018-01-31T09:38:28.958Z,10.54
2018-01-31T09:40:59.102Z,10.60
2018-01-31T09:43:29.181Z,10.62
2018-01-31T09:45:58.381Z,10.63
2018-01-31T09:48:27.598Z,10.63
2018-01-31T09:50:56.836Z,10.61
2018-01-31T09:53:26.841Z,10.60
2018-01-31T09:55:56.058Z,10.62
2018-01-31T09:58:25.310Z,10.61
2018-01-31T10:00:54.541Z,10.62
2018-01-31T10:03:24.512Z,10.66
2018-01-31T10:05:53.733Z,10.68
2018-01-31T10:08:22.942Z,10.67
2018-01-31T10:10:53.033Z,10.72
2018-01-31T10:13:22.275Z,10.74
2018-01-31T10:15:52.257Z,10.77
2018-01-31T10:18:21.468Z,10.77
2018-01-31T10:20:51.497Z,10.85
2018-01-31T10:23:21.574Z,10.88
2018-01-31T10:25:50.828Z,10.90
2018-01-31T10:28:20.817Z,10.96
2018-01-31T10:30:50.834Z,10.96
2018-01-31T10:33:20.795Z,10.88
2018-01-31T10:35:49.983Z,10.80
2018-01-31T10:38:19.184Z,10.75
2018-01-31T10:40:48.382Z,10.69
2018-01-31T10:43:17.591Z,10.68
2018-01-31T10:45:46.882Z,10.71
2018-01-31T10:48:16.117Z,10.69
2018-01-31T10:50:45.359Z,10.66
2018-01-31T10:53:15.334Z,10.58
2018-01-31T10:58:13.798Z,10.54
2018-01-31T11:00:42.999Z,10.51
2018-01-31T11:03:12.192Z,10.50
2018-01-31T11:05:42.990Z,10.52
2018-01-31T11:08:13.130Z,10.51
2018-01-31T11:10:42.412Z,10.56
2018-01-31T11:13:11.733Z,10.60
2018-01-31T11:15:40.995Z,10.61
2018-01-31T11:18:10.961Z,10.61
2018-01-31T11:20:40.186Z,10.64
2018-01-31T11:23:09.396Z,10.61
2018-01-31T11:25:38.628Z,10.62
2018-01-31T11:28:07.835Z,10.62
2018-01-31T11:30:37.048Z,10.59
2018-01-31T11:33:06.255Z,10.56
2018-01-31T11:35:35.463Z,10.53
2018-01-31T11:38:04.697Z,10.45
2018-01-31T11:40:34.642Z,10.43
2018-01-31T11:43:03.839Z,10.39
2018-01-31T11:45:33.040Z,10.40
2018-01-31T11:48:02.257Z,10.37
2018-01-31T11:50:31.457Z,10.35
2018-01-31T11:53:00.658Z,10.29
2018-01-31T11:55:29.887Z,10.25
2018-01-31T11:57:59.138Z,10.20
2018-01-31T12:00:28.309Z,10.20
2018-01-31T12:02:57.526Z,10.18
2018-01-31T12:05:26.744Z,10.22
2018-01-31T12:07:55.970Z,10.16
2018-01-31T12:10:40.556Z,10.08
2018-01-31T12:13:27.295Z,9.96
2018-01-31T12:30:04.494Z,9.62
2018-01-31T12:32:51.171Z,9.58
2018-01-31T12:49:42.778Z,9.58
2018-01-31T12:52:41.635Z,9.63
2018-01-31T12:55:29.413Z,9.65
2018-01-31T12:58:16.382Z,9.62
2018-01-31T13:01:04.098Z,9.61
2018-01-31T13:03:51.740Z,9.64
2018-01-31T13:06:38.680Z,9.63
2018-01-31T13:23:04.226Z,9.37
2018-01-31T13:25:51.059Z,9.39
2018-01-31T13:28:43.178Z,9.39
2018-01-31T13:31:30.808Z,9.38
2018-01-31T13:34:19.359Z,9.37
2018-01-31T13:37:07.053Z,9.32
2018-01-31T13:53:55.221Z,9.12
2018-01-31T13:56:42.200Z,9.04
2018-01-31T13:59:29.176Z,9.02
2018-01-31T14:02:16.724Z,8.97
2018-01-31T14:05:03.559Z,8.89
2018-01-31T14:07:50.538Z,8.82
2018-01-31T14:10:37.562Z,8.76
2018-01-31T14:27:04.837Z,8.70
2018-01-31T14:29:52.435Z,8.67
2018-01-31T14:45:59.084Z,8.53
2018-01-31T14:48:27.656Z,8.49
2018-01-31T14:50:58.398Z,8.46
2018-01-31T14:53:27.552Z,8.48
2018-01-31T14:55:55.961Z,8.49
2018-01-31T14:58:24.347Z,8.50
2018-01-31T15:00:53.531Z,8.48
2018-01-31T15:03:22.636Z,8.49
2018-01-31T15:05:51.008Z,8.46
2018-01-31T15:08:20.144Z,8.45
2018-01-31T15:10:48.523Z,8.45
2018-01-31T15:13:16.886Z,8.46
2018-01-31T15:15:45.263Z,8.43
2018-01-31T15:18:13.660Z,8.40
2018-01-31T15:20:42.050Z,8.32
2018-01-31T15:23:10.450Z,8.27
2018-01-31T15:25:39.565Z,8.14
2018-01-31T15:28:08.684Z,8.07
2018-01-31T15:30:37.053Z,8.01
2018-01-31T15:33:05.420Z,7.92
2018-01-31T15:35:33.817Z,7.89
2018-01-31T15:38:02.172Z,7.86
2018-01-31T15:40:30.547Z,7.83
2018-01-31T15:42:59.701Z,7.74
2018-01-31T15:45:28.231Z,7.74
2018-01-31T15:47:56.609Z,7.68
2018-01-31T15:50:24.989Z,7.69
2018-01-31T15:52:54.102Z,7.62
2018-01-31T15:55:22.502Z,7.58
2018-01-31T15:57:50.980Z,7.51
2018-01-31T16:00:19.350Z,7.46
2018-01-31T16:02:47.767Z,7.40
2018-01-31T16:05:16.109Z,7.38
2018-01-31T16:07:44.456Z,7.32
2018-01-31T16:10:13.581Z,7.22
2018-01-31T16:12:41.959Z,7.13
2018-01-31T16:15:10.337Z,7.09
2018-01-31T16:17:39.556Z,7.03
2018-01-31T16:20:26.726Z,7.04
2018-01-31T16:22:56.077Z,7.01
2018-01-31T16:25:25.334Z,7.01
2018-01-31T16:28:12.483Z,7.00
2018-01-31T16:30:47.789Z,6.99
2018-01-31T16:33:27.431Z,6.96
2018-01-31T16:35:56.710Z,6.98
2018-01-31T16:38:25.879Z,6.94
2018-01-31T16:40:55.084Z,6.94
2018-01-31T16:43:25.123Z,6.91
2018-01-31T16:45:55.142Z,6.83
2018-01-31T16:48:25.137Z,6.87
2018-01-31T16:50:55.161Z,6.87
2018-01-31T16:53:24.409Z,6.87
2018-01-31T16:55:53.612Z,6.82
2018-01-31T16:58:22.906Z,6.81
2018-01-31T17:00:52.113Z,6.83
2018-01-31T17:03:21.326Z,6.79
2018-01-31T17:05:51.371Z,6.78
2018-01-31T17:08:21.376Z,6.71
2018-01-31T17:10:50.585Z,6.69
2018-01-31T17:13:20.610Z,6.71
2018-01-31T17:15:49.855Z,6.70
2018-01-31T17:18:19.087Z,6.66
2018-01-31T17:20:49.064Z,6.64
2018-01-31T17:23:18.318Z,6.59
2018-01-31T17:25:58.983Z,6.51
2018-01-31T17:28:28.361Z,6.53
2018-01-31T17:30:59.052Z,6.49
2018-01-31T17:33:28.312Z,6.45
2018-01-31T17:35:57.808Z,6.46
2018-01-31T17:38:28.847Z,6.44
2018-01-31T17:40:58.338Z,6.43
2018-01-31T17:43:27.578Z,6.39
2018-01-31T17:45:56.819Z,6.39
2018-01-31T17:48:26.029Z,6.41
2018-01-31T17:50:55.408Z,6.40
2018-01-31T17:53:24.586Z,6.39
2018-01-31T17:55:53.819Z,6.39
2018-01-31T17:58:23.849Z,6.39
2018-01-31T18:00:53.113Z,6.37
2018-01-31T18:03:23.262Z,6.33
2018-01-31T18:05:52.490Z,6.30
2018-01-31T18:08:21.688Z,6.30
2018-01-31T18:10:51.098Z,6.30
2018-01-31T18:13:20.351Z,6.26
2018-01-31T18:15:49.572Z,6.27
2018-01-31T18:18:19.548Z,6.26
2018-01-31T18:20:48.846Z,6.24
2018-01-31T18:23:18.014Z,6.22
2018-01-31T18:25:47.327Z,6.22
2018-01-31T18:28:16.559Z,6.20
2018-01-31T18:30:45.796Z,6.19
2018-01-31T18:33:15.046Z,6.18
2018-01-31T18:35:44.255Z,6.23
2018-01-31T18:38:13.482Z,6.22
2018-01-31T18:40:42.687Z,6.20
2018-01-31T18:43:12.024Z,6.17
2018-01-31T18:45:41.175Z,6.13
2018-01-31T18:48:10.418Z,6.17
2018-01-31T18:50:39.630Z,6.11
2018-01-31T18:53:08.829Z,6.12
2018-01-31T18:55:38.071Z,6.17
2018-01-31T18:58:07.370Z,6.13
2018-01-31T19:00:36.577Z,6.11
2018-01-31T19:03:05.931Z,6.12
2018-01-31T19:05:35.162Z,6.06
2018-01-31T19:08:05.146Z,5.99
2018-01-31T19:10:34.383Z,5.96
2018-01-31T19:13:03.598Z,5.95
2018-01-31T19:15:32.814Z,5.91
2018-01-31T19:18:02.094Z,5.90
2018-01-31T19:20:31.317Z,5.91
2018-01-31T19:23:00.571Z,5.93
2018-01-31T19:25:29.839Z,5.88
2018-01-31T19:27:59.090Z,5.89
2018-01-31T19:30:28.311Z,5.91
2018-01-31T19:32:57.563Z,5.91
2018-01-31T19:35:27.662Z,5.86
2018-01-31T19:37:56.914Z,5.88
2018-01-31T19:40:26.243Z,5.86
2018-01-31T19:42:55.422Z,5.84
2018-01-31T19:45:24.644Z,5.80
2018-01-31T19:47:53.878Z,5.76
2018-01-31T19:50:23.119Z,5.70
2018-01-31T19:52:52.379Z,5.69
2018-01-31T19:55:21.574Z,5.68
2018-01-31T19:57:50.830Z,5.65
2018-01-31T20:00:20.044Z,5.61
2018-01-31T20:02:50.042Z,5.63
2018-01-31T20:05:19.288Z,5.66
2018-01-31T20:07:48.523Z,5.65
2018-01-31T20:10:17.799Z,5.66
2018-01-31T20:12:47.325Z,5.63
2018-01-31T20:15:16.663Z,5.66
2018-01-31T20:17:46.646Z,5.60
2018-01-31T20:20:15.873Z,5.63
2018-01-31T20:22:45.080Z,5.58
2018-01-31T20:25:15.775Z,5.53
2018-01-31T20:27:45.002Z,5.47
2018-01-31T20:30:15.033Z,5.38
2018-01-31T20:32:44.999Z,5.41
2018-01-31T20:35:14.433Z,5.40
2018-01-31T20:37:43.668Z,5.33
2018-01-31T20:40:13.637Z,5.32
2018-01-31T20:42:42.862Z,5.29
2018-01-31T20:45:12.235Z,5.27
2018-01-31T20:47:41.438Z,5.28
2018-01-31T20:50:11.550Z,5.29
2018-01-31T20:52:40.852Z,5.25
2018-01-31T20:55:10.094Z,5.21
2018-01-31T20:57:39.299Z,5.21
2018-01-31T21:00:08.482Z,5.21
2018-01-31T21:02:37.692Z,5.18
2018-01-31T21:05:06.907Z,5.26
2018-01-31T21:07:36.188Z,5.22
2018-01-31T21:10:05.408Z,5.27
2018-01-31T21:12:34.627Z,5.26
2018-01-31T21:15:03.857Z,5.27
2018-01-31T21:17:33.087Z,5.29
2018-01-31T21:20:02.364Z,5.35
2018-01-31T21:22:31.590Z,5.34
2018-01-31T21:25:00.799Z,5.35
2018-01-31T21:27:30.022Z,5.40
2018-01-31T21:30:00.247Z,5.39
2018-01-31T21:32:29.493Z,5.40
2018-01-31T21:34:58.697Z,5.42
2018-01-31T21:37:27.929Z,5.46
2018-01-31T21:39:57.162Z,5.40
2018-01-31T21:42:26.413Z,5.35
2018-01-31T21:44:55.621Z,5.35
2018-01-31T21:47:25.601Z,5.36
2018-01-31T21:49:54.866Z,5.36
2018-01-31T21:52:25.039Z,5.40
2018-01-31T21:54:54.281Z,5.44
2018-01-31T22:10:52.730Z,5.34
2018-01-31T22:13:22.171Z,5.39
2018-01-31T22:18:27.465Z,5.33
2018-01-31T22:20:56.856Z,5.38
2018-01-31T22:23:26.222Z,5.39
2018-01-31T22:25:55.423Z,5.40
2018-01-31T22:28:24.631Z,5.37
2018-01-31T22:30:53.824Z,5.39
2018-01-31T22:33:23.026Z,5.33
2018-01-31T22:35:52.245Z,5.28
2018-01-31T22:38:21.748Z,5.28
2018-01-31T22:40:50.971Z,5.30
2018-01-31T22:43:20.156Z,5.31
2018-01-31T22:45:49.386Z,5.36
2018-01-31T22:48:19.357Z,5.32
2018-01-31T22:50:48.575Z,5.32
2018-01-31T22:53:17.795Z,5.31
2018-01-31T22:55:47.763Z,5.25
2018-01-31T22:58:16.988Z,5.25
2018-01-31T23:00:46.220Z,5.19
2018-01-31T23:03:16.299Z,5.07
2018-01-31T23:05:45.475Z,4.93
2018-01-31T23:08:14.734Z,4.86
2018-01-31T23:10:43.919Z,4.88
2018-01-31T23:13:19.035Z,4.93
2018-01-31T23:15:48.261Z,4.96
2018-01-31T23:18:19.051Z,5.00
2018-01-31T23:20:48.894Z,4.99
2018-01-31T23:23:18.175Z,5.00
2018-01-31T23:25:47.326Z,5.00
2018-01-31T23:28:16.530Z,4.98
2018-01-31T23:30:45.791Z,5.01
2018-01-31T23:33:15.798Z,4.99
2018-01-31T23:35:45.765Z,4.92
2018-01-31T23:38:14.997Z,4.93
2018-01-31T23:40:44.266Z,4.91
2018-01-31T23:43:13.512Z,4.88
2018-01-31T23:45:43.488Z,4.90
2018-01-31T23:48:12.712Z,4.88
2018-01-31T23:50:41.923Z,4.83
2018-01-31T23:53:11.272Z,4.71
2018-01-31T23:55:40.695Z,4.68
2018-01-31T23:58:09.956Z,4.67
